Terminal Aerodrome Forecast
Issued by NWS

Home | Current Version | Previous Version | Text Only | Print | Product List | Glossary On
Versions: 1 2 3 4 5 6 7 8 9 10 11 12 13 14 15 16 17 18 19 20 21 22 23 24 25 26
000
FTUS44 KOUN 231139
TAFHBR
TAF
KHBR 231139Z 2312/2412 24008KT P6SM BKN250
     FM231900 24016G28KT P6SM SCT250
     FM240100 26014KT P6SM FEW250
     FM240400 31016G24KT P6SM FEW250=

USA.gov is the U.S. government's official web portal to all federal, state and local government web resources and services.